createdAt,value
2017-06-10T15:13:39.883Z,35.00
2017-06-10T15:16:07.340Z,34.80
2017-06-10T15:18:34.859Z,34.60
2017-06-10T15:21:03.128Z,34.00
2017-06-10T15:23:30.633Z,34.00
2017-06-10T15:25:58.127Z,33.80
2017-06-10T15:28:25.627Z,34.00
2017-06-10T15:30:53.876Z,33.40
2017-06-10T15:33:21.359Z,33.30
2017-06-10T15:35:49.612Z,33.30
2017-06-10T15:38:17.096Z,33.30
2017-06-10T15:40:45.355Z,33.30
2017-06-10T15:43:12.843Z,33.30
2017-06-10T15:45:40.284Z,33.60
2017-06-10T15:48:07.742Z,34.00
2017-06-10T15:50:35.952Z,34.30
2017-06-10T15:53:03.444Z,34.20
2017-06-10T15:55:30.892Z,34.50
2017-06-10T15:57:58.352Z,34.70
2017-06-10T16:00:25.839Z,35.10
2017-06-10T16:02:54.095Z,35.60
2017-06-10T16:05:21.575Z,35.60
2017-06-10T16:07:49.831Z,35.00
2017-06-10T16:10:17.277Z,34.90
2017-06-10T16:12:44.768Z,34.60
2017-06-10T16:15:12.260Z,34.50
2017-06-10T16:17:39.688Z,34.50
2017-06-10T16:20:07.183Z,34.40
2017-06-10T16:22:34.667Z,34.30
2017-06-10T16:25:02.113Z,34.40
2017-06-10T16:27:29.564Z,34.60
2017-06-10T16:29:57.059Z,34.90
2017-06-10T16:32:24.547Z,35.00
2017-06-10T16:34:52.811Z,33.30
2017-06-10T16:37:21.018Z,33.30
2017-06-10T16:39:48.512Z,33.30
2017-06-10T16:42:16.004Z,33.00
2017-06-10T16:44:43.478Z,33.20
2017-06-10T16:47:10.963Z,33.60
2017-06-10T16:49:38.440Z,33.80
2017-06-10T16:52:05.888Z,33.80
2017-06-10T16:54:33.344Z,34.10
2017-06-10T16:57:00.796Z,34.00
2017-06-10T16:59:28.241Z,33.90
2017-06-10T17:01:55.815Z,34.00
2017-06-10T17:04:23.314Z,34.20
2017-06-10T17:06:50.789Z,34.00
2017-06-10T17:09:19.047Z,33.00
2017-06-10T17:11:46.533Z,33.00
2017-06-10T17:14:14.015Z,32.40
2017-06-10T17:16:41.491Z,32.00
2017-06-10T17:19:08.987Z,31.50
2017-06-10T17:21:36.467Z,31.50
2017-06-10T17:24:04.724Z,31.90
2017-06-10T17:26:32.173Z,31.90
2017-06-10T17:28:59.667Z,32.20
2017-06-10T17:31:27.109Z,32.20
2017-06-10T17:33:55.372Z,32.40
2017-06-10T17:36:22.860Z,32.40
2017-06-10T17:38:50.340Z,32.40
2017-06-10T17:41:17.827Z,32.40
2017-06-10T17:43:45.364Z,32.60
2017-06-10T17:46:12.851Z,32.80
2017-06-10T17:48:40.331Z,33.00
2017-06-10T17:51:07.819Z,33.20
2017-06-10T17:53:35.401Z,33.00
2017-06-10T17:56:02.875Z,32.70
2017-06-10T17:58:30.360Z,32.60
2017-06-10T18:00:57.809Z,32.30
2017-06-10T18:03:25.316Z,31.90
2017-06-10T18:05:52.799Z,31.40
2017-06-10T18:08:20.288Z,31.10
2017-06-10T18:10:47.763Z,30.70
2017-06-10T18:13:15.247Z,30.30
2017-06-10T18:15:42.736Z,30.00
2017-06-10T18:18:10.287Z,29.90
2017-06-10T18:20:37.734Z,29.90
2017-06-10T18:23:05.232Z,30.00
2017-06-10T18:25:32.681Z,29.80
2017-06-10T18:28:00.136Z,29.50
2017-06-10T18:30:33.337Z,29.20
2017-06-10T18:33:00.827Z,28.90
2017-06-10T18:35:29.049Z,28.10
2017-06-10T18:37:56.531Z,28.10
2017-06-10T18:40:23.978Z,27.80
2017-06-10T18:42:51.468Z,27.50
2017-06-10T18:45:18.912Z,27.10
2017-06-10T18:47:46.399Z,26.80
2017-06-10T18:50:14.644Z,26.20
2017-06-10T18:52:42.136Z,26.10
2017-06-10T18:55:10.391Z,25.70
2017-06-10T18:57:37.845Z,25.60
2017-06-10T19:00:05.340Z,25.40
2017-06-10T19:02:33.587Z,25.00
2017-06-10T19:05:01.080Z,25.00
2017-06-10T19:07:28.559Z,24.70
2017-06-10T19:09:56.039Z,24.40
2017-06-10T19:12:23.514Z,24.20
2017-06-10T19:14:50.991Z,23.90
2017-06-10T19:17:18.506Z,23.70
2017-06-10T19:19:45.979Z,23.60
2017-06-10T19:22:13.467Z,23.40
2017-06-10T19:24:41.723Z,23.10
2017-06-10T19:27:09.211Z,23.10
2017-06-10T19:29:37.493Z,22.80
2017-06-10T19:32:05.749Z,22.60
2017-06-10T19:34:33.235Z,22.60
2017-06-10T19:37:00.711Z,22.40
2017-06-10T19:39:28.155Z,22.30
2017-06-10T19:41:55.634Z,22.10
2017-06-10T19:44:23.115Z,22.00
2017-06-10T19:46:50.564Z,21.90
2017-06-10T19:49:18.055Z,21.80
2017-06-10T19:51:45.492Z,21.70
2017-06-10T19:54:12.991Z,21.60
2017-06-10T19:56:42.791Z,21.40
2017-06-10T19:59:10.279Z,21.40
2017-06-10T20:01:37.805Z,21.30
2017-06-10T20:04:05.257Z,21.20
2017-06-10T20:06:32.747Z,21.10
2017-06-10T20:09:00.991Z,20.80
2017-06-10T20:11:28.475Z,20.80
2017-06-10T20:13:56.723Z,20.70
2017-06-10T20:16:24.306Z,20.60
2017-06-10T20:18:52.520Z,20.50
2017-06-10T20:21:20.011Z,20.50
2017-06-10T20:23:47.503Z,20.40
2017-06-10T20:26:15.740Z,20.30
2017-06-10T20:28:43.331Z,20.20
2017-06-10T20:31:11.619Z,20.10
2017-06-10T20:33:39.852Z,20.00
2017-06-10T20:36:07.451Z,20.00
2017-06-10T20:38:35.668Z,19.90
2017-06-10T20:41:03.199Z,19.90
2017-06-10T20:43:31.437Z,19.70
2017-06-10T20:45:59.028Z,19.70
2017-06-10T20:48:27.303Z,19.60
2017-06-10T20:50:55.581Z,19.50
2017-06-10T20:53:23.864Z,19.50
2017-06-10T20:55:52.097Z,19.40
2017-06-10T20:58:19.710Z,19.40
2017-06-10T21:00:47.263Z,19.30
2017-06-10T21:03:14.827Z,19.30
2017-06-10T21:05:42.317Z,19.20
2017-06-10T21:08:09.756Z,19.10
2017-06-10T21:10:37.255Z,19.10
2017-06-10T21:13:04.851Z,19.00
2017-06-10T21:15:33.112Z,18.90
2017-06-10T21:18:00.560Z,18.90
2017-06-10T21:20:28.012Z,18.90
2017-06-10T21:22:55.503Z,18.90
2017-06-10T21:25:23.763Z,18.70
2017-06-10T21:27:51.213Z,18.70
2017-06-10T21:30:18.699Z,18.70
2017-06-10T21:32:46.959Z,18.50
2017-06-10T21:35:14.468Z,18.50
2017-06-10T21:37:41.921Z,18.50
2017-06-10T21:40:09.411Z,18.50
2017-06-10T21:42:36.901Z,18.40
2017-06-10T21:45:04.352Z,18.40
2017-06-10T21:47:32.615Z,18.40
2017-06-10T21:50:00.104Z,18.30
2017-06-10T21:52:27.602Z,18.30
2017-06-10T21:54:55.092Z,18.30
2017-06-10T21:57:22.549Z,18.20
2017-06-10T21:59:50.048Z,18.10
2017-06-10T22:02:17.535Z,18.00
2017-06-10T22:04:44.988Z,17.90
2017-06-10T22:07:12.484Z,17.90
2017-06-10T22:09:39.971Z,17.80
2017-06-10T22:12:07.463Z,17.70
2017-06-10T22:14:34.963Z,17.60
2017-06-10T22:17:02.451Z,17.50
2017-06-10T22:19:30.673Z,17.50
2017-06-10T22:21:58.171Z,17.40
2017-06-10T22:24:26.436Z,17.50
2017-06-10T22:26:53.927Z,17.40
2017-06-10T22:29:21.420Z,17.40
2017-06-10T22:31:48.872Z,17.40
2017-06-10T22:34:16.768Z,17.40
2017-06-10T22:36:44.267Z,17.30
2017-06-10T22:39:11.721Z,17.30
2017-06-10T22:41:39.211Z,17.20
2017-06-10T22:44:06.707Z,17.10
2017-06-10T22:46:34.195Z,17.00
2017-06-10T22:49:01.691Z,17.00
2017-06-10T22:51:29.203Z,16.90
2017-06-10T22:53:57.463Z,16.80
2017-06-10T22:56:24.963Z,16.80
2017-06-10T22:58:52.431Z,16.80
2017-06-10T23:01:19.934Z,16.70
2017-06-10T23:03:47.373Z,16.70
2017-06-10T23:06:14.875Z,16.60
2017-06-10T23:08:43.139Z,16.60
2017-06-10T23:11:10.632Z,16.50
2017-06-10T23:13:38.133Z,16.50
2017-06-10T23:16:05.628Z,16.50
2017-06-10T23:18:33.891Z,16.30
2017-06-10T23:21:01.380Z,16.30
2017-06-10T23:23:28.876Z,16.30
2017-06-10T23:25:56.324Z,16.20
2017-06-10T23:28:23.824Z,16.20
2017-06-10T23:30:51.307Z,16.20
2017-06-10T23:33:18.901Z,16.10
2017-06-10T23:35:46.444Z,16.10
2017-06-10T23:38:13.900Z,16.00
2017-06-10T23:40:41.391Z,15.90
2017-06-10T23:43:08.849Z,15.90
2017-06-10T23:45:36.305Z,15.80
2017-06-10T23:48:03.762Z,15.80
2017-06-10T23:50:31.266Z,15.80
2017-06-10T23:52:58.713Z,15.80
2017-06-10T23:55:26.204Z,15.80
2017-06-10T23:57:53.700Z,15.80
